createdAt,value
2023-01-10T00:00:49.451Z,97968.09
2023-01-10T00:03:16.466Z,97972.84
2023-01-10T00:05:43.552Z,97974.81
2023-01-10T00:08:16.234Z,97976.41
2023-01-10T00:10:43.213Z,97973.59
2023-01-10T00:13:23.830Z,97983.78
2023-01-10T00:15:52.815Z,97991.91
2023-01-10T00:18:20.840Z,97986.75
2023-01-10T00:20:51.987Z,97995.38
2023-01-10T00:23:19.949Z,98000.81
2023-01-10T00:25:47.003Z,98004.25
2023-01-10T00:28:20.437Z,98003.22
2023-01-10T00:31:00.986Z,98004.06
2023-01-10T00:33:34.210Z,98017.06
2023-01-10T00:36:03.951Z,98013.88
2023-01-10T00:38:31.507Z,98021.94
2023-01-10T00:40:58.484Z,98025.59
2023-01-10T00:43:44.413Z,98029.19
2023-01-10T00:46:12.037Z,98036.69
2023-01-10T00:48:39.486Z,98037.81
2023-01-10T00:51:06.599Z,98033.59
2023-01-10T00:53:33.571Z,98045.50
2023-01-10T00:56:00.539Z,98045.19
2023-01-10T00:58:27.465Z,98050.44
2023-01-10T01:00:54.502Z,98056.91
2023-01-10T01:03:23.247Z,98058.22
2023-01-10T01:05:50.264Z,98064.28
2023-01-10T01:08:19.324Z,98063.25
2023-01-10T01:10:46.790Z,98073.66
2023-01-10T01:13:20.923Z,98063.44
2023-01-10T01:15:48.805Z,98069.25
2023-01-10T01:18:20.850Z,98068.69
2023-01-10T01:20:48.586Z,98075.78
2023-01-10T01:23:16.043Z,98077.22
2023-01-10T01:25:43.073Z,98089.34
2023-01-10T01:28:13.232Z,98100.59
2023-01-10T01:30:40.296Z,98104.03
2023-01-10T01:33:07.838Z,98113.41
2023-01-10T01:35:35.082Z,98113.47
2023-01-10T01:38:02.160Z,98123.13
2023-01-10T01:40:29.219Z,98125.53
2023-01-10T01:42:56.252Z,98137.88
2023-01-10T01:45:23.165Z,98139.47
2023-01-10T01:47:56.208Z,98152.56
2023-01-10T01:50:27.875Z,98161.44
2023-01-10T01:52:58.395Z,98163.72
2023-01-10T01:55:26.856Z,98174.94
2023-01-10T01:57:57.634Z,98183.53
2023-01-10T02:00:24.706Z,98181.09
2023-01-10T02:03:02.875Z,98181.22
2023-01-10T02:05:33.185Z,98187.78
2023-01-10T02:08:02.303Z,98201.88
2023-01-10T02:10:43.862Z,98206.84
2023-01-10T02:13:14.994Z,98203.91
2023-01-10T02:15:42.050Z,98198.59
2023-01-10T02:18:09.433Z,98211.50
2023-01-10T02:21:05.388Z,98204.88
2023-01-10T02:24:06.064Z,98221.53
2023-01-10T02:27:11.009Z,98223.97
2023-01-10T02:30:27.433Z,98222.38
2023-01-10T02:33:10.840Z,98227.69
2023-01-10T02:36:25.190Z,98236.38
2023-01-10T02:39:05.605Z,98242.75
2023-01-10T02:41:58.988Z,98254.97
2023-01-10T02:44:46.344Z,98255.34
2023-01-10T02:47:14.182Z,98257.13
2023-01-10T02:49:50.220Z,98265.88
2023-01-10T02:52:28.242Z,98269.44
2023-01-10T02:55:01.174Z,98270.66
2023-01-10T02:57:56.968Z,98285.75
2023-01-10T03:00:45.359Z,98286.44
2023-01-10T03:03:22.951Z,98288.22
2023-01-10T03:06:18.666Z,98296.97
2023-01-10T03:09:05.419Z,98308.38
2023-01-10T03:11:43.982Z,98305.78
2023-01-10T03:14:22.140Z,98318.69
2023-01-10T03:17:07.179Z,98314.22
2023-01-10T03:19:42.990Z,98318.78
2023-01-10T03:22:11.658Z,98316.91
2023-01-10T03:24:46.840Z,98331.19
2023-01-10T03:27:54.477Z,98338.44
2023-01-10T03:30:35.476Z,98339.97
2023-01-10T03:33:03.938Z,98350.34
2023-01-10T03:36:06.047Z,98366.31
2023-01-10T03:38:53.522Z,98359.31
2023-01-10T03:41:41.237Z,98380.09
2023-01-10T03:44:44.382Z,98382.00
2023-01-10T03:47:20.250Z,98382.00
2023-01-10T03:49:54.471Z,98385.31
2023-01-10T03:52:22.000Z,98398.47
2023-01-10T03:54:49.033Z,98402.22
2023-01-10T03:57:24.626Z,98406.69
2023-01-10T03:59:56.738Z,98414.59
2023-01-10T04:02:28.171Z,98423.47
2023-01-10T04:04:55.274Z,98427.88
2023-01-10T04:07:22.484Z,98436.72
2023-01-10T04:09:49.819Z,98446.09
2023-01-10T04:12:17.499Z,98453.94
2023-01-10T04:14:47.923Z,98449.03
2023-01-10T04:17:17.778Z,98453.28
2023-01-10T04:19:45.146Z,98450.59
2023-01-10T04:22:12.759Z,98455.97
2023-01-10T04:24:40.263Z,98451.84
2023-01-10T04:27:07.681Z,98461.69
2023-01-10T04:29:34.639Z,98467.78
2023-01-10T04:32:01.596Z,98473.69
2023-01-10T04:34:28.536Z,98490.38
2023-01-10T04:36:55.506Z,98488.09
2023-01-10T04:39:22.826Z,98498.47
2023-01-10T04:41:50.406Z,98513.41
2023-01-10T04:44:17.353Z,98511.84
2023-01-10T04:46:44.370Z,98520.88
2023-01-10T04:49:11.906Z,98520.72
2023-01-10T04:51:39.026Z,98531.19
2023-01-10T04:54:06.045Z,98533.56
2023-01-10T04:56:32.998Z,98532.72
2023-01-10T04:58:59.946Z,98542.50
2023-01-10T05:01:27.163Z,98541.56
2023-01-10T05:03:55.847Z,98545.50
2023-01-10T05:06:24.555Z,98551.28
2023-01-10T05:08:51.591Z,98558.13
2023-01-10T05:11:18.625Z,98553.66
2023-01-10T05:13:47.952Z,98554.63
2023-01-10T05:16:15.507Z,98566.09
2023-01-10T05:18:42.731Z,98574.84
2023-01-10T05:21:13.336Z,98576.50
2023-01-10T05:23:40.845Z,98578.28
2023-01-10T05:26:15.541Z,98580.91
2023-01-10T05:28:43.190Z,98581.81
2023-01-10T05:31:13.939Z,98583.59
2023-01-10T05:33:46.578Z,98591.84
2023-01-10T05:36:13.977Z,98593.78
2023-01-10T05:38:40.957Z,98591.50
2023-01-10T05:41:08.163Z,98597.44
2023-01-10T05:43:35.460Z,98593.06
2023-01-10T05:46:02.596Z,98604.47
2023-01-10T05:48:29.947Z,98599.69
2023-01-10T05:50:57.740Z,98602.69
2023-01-10T05:53:24.980Z,98599.91
2023-01-10T05:55:59.959Z,98611.53
2023-01-10T05:58:27.471Z,98606.53
2023-01-10T06:00:56.305Z,98620.38
2023-01-10T06:03:25.010Z,98630.69
2023-01-10T06:05:53.068Z,98637.91
2023-01-10T06:08:20.080Z,98644.69
2023-01-10T06:10:47.052Z,98651.34
2023-01-10T06:13:14.217Z,98646.31
2023-01-10T06:15:41.634Z,98645.16
2023-01-10T06:18:11.837Z,98640.09
2023-01-10T06:20:40.189Z,98647.22
2023-01-10T06:23:07.510Z,98646.38
2023-01-10T06:25:40.171Z,98660.03
2023-01-10T06:28:08.608Z,98667.31
2023-01-10T06:30:35.640Z,98662.03
2023-01-10T06:33:08.669Z,98663.03
2023-01-10T06:35:36.489Z,98667.31
2023-01-10T06:38:04.187Z,98681.25
2023-01-10T06:40:31.282Z,98677.09
2023-01-10T06:42:59.156Z,98677.31
2023-01-10T06:45:26.128Z,98684.00
2023-01-10T06:47:53.130Z,98695.47
2023-01-10T06:50:20.335Z,98700.66
2023-01-10T06:52:55.314Z,98709.75
2023-01-10T06:55:23.051Z,98700.84
2023-01-10T06:57:55.561Z,98712.22
2023-01-10T07:00:23.742Z,98714.16
2023-01-10T07:02:50.774Z,98711.13
2023-01-10T07:05:18.184Z,98712.63
2023-01-10T07:07:45.149Z,98715.63
2023-01-10T07:10:12.900Z,98718.50
2023-01-10T07:12:39.883Z,98723.13
2023-01-10T07:15:07.591Z,98719.41
2023-01-10T07:17:34.883Z,98717.56
2023-01-10T07:20:01.803Z,98723.78
2023-01-10T07:22:28.805Z,98742.63
2023-01-10T07:24:55.738Z,98745.41
2023-01-10T07:27:22.668Z,98752.81
2023-01-10T07:29:50.059Z,98762.63
2023-01-10T07:32:17.448Z,98767.38
2023-01-10T07:34:44.427Z,98784.06
2023-01-10T07:37:11.412Z,98793.72
2023-01-10T07:39:38.480Z,98794.38
2023-01-10T07:42:05.511Z,98798.91
2023-01-10T07:44:32.452Z,98801.78
2023-01-10T07:46:59.754Z,98793.63
2023-01-10T07:49:26.710Z,98796.56
2023-01-10T07:51:53.782Z,98797.66
2023-01-10T07:54:21.194Z,98795.34
2023-01-10T07:56:50.147Z,98803.41
2023-01-10T07:59:17.563Z,98818.16
2023-01-10T08:01:44.511Z,98823.25
2023-01-10T08:04:11.391Z,98831.44
2023-01-10T08:06:38.366Z,98834.50
2023-01-10T08:09:05.879Z,98838.13
2023-01-10T08:11:32.947Z,98833.06
2023-01-10T08:13:59.933Z,98833.63
2023-01-10T08:16:26.977Z,98846.47
2023-01-10T08:18:53.970Z,98852.63
2023-01-10T08:21:21.717Z,98853.84
2023-01-10T08:23:48.687Z,98848.78
2023-01-10T08:26:15.627Z,98856.56
2023-01-10T08:28:42.997Z,98853.50
2023-01-10T08:31:10.421Z,98862.44
2023-01-10T08:33:40.998Z,98873.13
2023-01-10T08:36:16.279Z,98881.78
2023-01-10T08:38:43.311Z,98889.88
2023-01-10T08:41:10.702Z,98880.63
2023-01-10T08:43:37.728Z,98889.88
2023-01-10T08:46:04.803Z,98900.97
2023-01-10T08:48:31.975Z,98908.69
2023-01-10T08:50:58.922Z,98911.84
2023-01-10T08:53:31.814Z,98897.06
2023-01-10T08:55:58.827Z,98888.09
2023-01-10T08:58:25.769Z,98896.13
2023-01-10T09:00:52.789Z,98895.50
2023-01-10T09:03:19.735Z,98904.97
2023-01-10T09:05:46.796Z,98917.75
2023-01-10T09:08:13.663Z,98918.56
2023-01-10T09:10:41.621Z,98922.50
2023-01-10T09:13:09.619Z,98926.78
2023-01-10T09:15:38.476Z,98928.59
2023-01-10T09:18:07.840Z,98942.94
2023-01-10T09:20:37.987Z,98942.16
2023-01-10T09:23:17.610Z,98942.16
2023-01-10T09:25:45.888Z,98946.06
2023-01-10T09:28:14.902Z,98951.09
2023-01-10T09:30:42.217Z,98956.16
2023-01-10T09:33:10.009Z,98959.19
2023-01-10T09:35:39.697Z,98966.44
2023-01-10T09:38:12.050Z,98968.91
2023-01-10T09:41:03.485Z,98975.06
2023-01-10T09:44:04.932Z,98978.72
2023-01-10T09:46:48.070Z,98978.56
2023-01-10T09:49:43.576Z,98980.88
2023-01-10T09:52:27.423Z,98985.56
2023-01-10T09:54:57.649Z,98984.72
2023-01-10T09:57:25.519Z,98985.25
2023-01-10T09:59:54.408Z,98982.75
2023-01-10T10:02:28.978Z,98990.75
2023-01-10T10:05:19.024Z,98989.22
2023-01-10T10:07:52.518Z,98991.00
2023-01-10T10:10:39.180Z,98991.06
2023-01-10T10:13:51.704Z,98996.75
2023-01-10T10:17:07.268Z,98989.66
2023-01-10T10:19:55.874Z,98985.25
2023-01-10T10:22:59.569Z,98990.06
2023-01-10T10:26:16.564Z,98987.44
2023-01-10T10:28:55.073Z,98999.31
2023-01-10T10:31:58.276Z,98990.16
2023-01-10T10:34:49.745Z,98986.00
2023-01-10T10:37:22.762Z,98988.66
2023-01-10T10:40:02.103Z,98983.28
2023-01-10T10:42:34.179Z,98985.41
2023-01-10T10:45:25.390Z,98988.91
2023-01-10T10:48:31.288Z,98984.56
2023-01-10T10:51:47.865Z,98984.72
2023-01-10T10:54:16.559Z,98987.56
2023-01-10T10:56:44.486Z,98981.75
2023-01-10T10:59:20.029Z,98986.34
2023-01-10T11:01:49.687Z,98980.31
2023-01-10T11:04:23.588Z,98992.47
2023-01-10T11:06:50.987Z,98988.91
2023-01-10T11:09:45.628Z,98991.22
2023-01-10T11:12:18.729Z,98991.06
2023-01-10T11:14:51.431Z,98994.75
2023-01-10T11:17:23.544Z,98997.09
2023-01-10T11:20:07.918Z,98992.22
2023-01-10T11:22:49.870Z,98997.50
2023-01-10T11:25:19.639Z,99013.59
2023-01-10T11:27:57.716Z,99011.03
2023-01-10T11:30:32.363Z,99007.22
2023-01-10T11:33:08.435Z,99015.06
2023-01-10T11:35:38.590Z,99013.72
2023-01-10T11:38:17.347Z,99015.72
2023-01-10T11:41:24.144Z,99006.78
2023-01-10T11:43:51.110Z,99000.13
2023-01-10T11:46:22.681Z,99003.00
2023-01-10T11:49:06.888Z,98994.91
2023-01-10T11:51:39.806Z,98987.72
2023-01-10T11:54:25.587Z,98993.59
2023-01-10T11:56:56.914Z,98997.47
2023-01-10T11:59:25.110Z,98994.97
2023-01-10T12:02:13.769Z,99003.63
2023-01-10T12:04:46.929Z,98995.44
2023-01-10T12:07:13.996Z,98997.69
2023-01-10T12:09:45.139Z,98993.91
2023-01-10T12:12:23.936Z,98998.38
2023-01-10T12:14:53.365Z,99000.22
2023-01-10T12:17:34.310Z,99005.09
2023-01-10T12:20:06.424Z,98999.56
2023-01-10T12:23:19.558Z,98987.84
2023-01-10T12:25:48.429Z,98987.19
2023-01-10T12:28:24.927Z,98991.28
2023-01-10T12:30:55.313Z,98977.50
2023-01-10T12:33:41.440Z,98976.28
2023-01-10T12:36:24.632Z,98961.34
2023-01-10T12:39:16.345Z,98975.72
2023-01-10T12:42:06.253Z,98983.63
2023-01-10T12:44:43.085Z,98978.00
2023-01-10T12:47:38.584Z,98963.38
2023-01-10T12:50:27.679Z,98958.66
2023-01-10T12:53:29.911Z,98955.47
2023-01-10T12:56:04.191Z,98956.91
2023-01-10T12:58:45.036Z,98952.13
2023-01-10T13:01:35.385Z,98960.16
2023-01-10T13:04:16.456Z,98953.94
2023-01-10T13:06:44.744Z,98954.03
2023-01-10T13:09:21.050Z,98959.75
2023-01-10T13:12:08.550Z,98953.69
2023-01-10T13:14:44.625Z,98948.66
2023-01-10T13:17:28.716Z,98946.00
2023-01-10T13:20:17.498Z,98948.53
2023-01-10T13:22:54.128Z,98934.50
2023-01-10T13:25:26.867Z,98933.78
2023-01-10T13:28:10.193Z,98938.34
2023-01-10T13:30:40.923Z,98940.28
2023-01-10T13:33:27.073Z,98935.97
2023-01-10T13:36:18.074Z,98935.25
2023-01-10T13:38:50.592Z,98931.72
2023-01-10T13:41:37.792Z,98927.25
2023-01-10T13:44:10.757Z,98933.28
2023-01-10T13:46:50.550Z,98927.56
2023-01-10T13:49:41.705Z,98939.22
2023-01-10T13:52:32.967Z,98933.19
2023-01-10T13:55:03.836Z,98942.84
2023-01-10T13:58:02.414Z,98944.34
2023-01-10T14:00:53.865Z,98939.22
2023-01-10T14:03:49.595Z,98941.84
2023-01-10T14:06:32.617Z,98944.28
2023-01-10T14:09:13.157Z,98947.84
2023-01-10T14:11:45.998Z,98951.25
2023-01-10T14:14:24.564Z,98954.41
2023-01-10T14:17:12.776Z,98957.16
2023-01-10T14:19:42.631Z,98970.38
2023-01-10T14:22:26.610Z,98969.16
2023-01-10T14:24:54.647Z,98965.06
2023-01-10T14:27:22.956Z,98969.38
2023-01-10T14:30:00.881Z,98968.84
2023-01-10T14:32:38.539Z,98966.59
2023-01-10T14:35:19.542Z,98967.63
2023-01-10T14:38:03.026Z,98966.22
2023-01-10T14:40:43.173Z,98963.53
2023-01-10T14:43:19.315Z,98969.97
2023-01-10T14:46:15.652Z,98974.03
2023-01-10T14:48:52.225Z,98978.94
2023-01-10T14:51:30.892Z,98971.78
2023-01-10T14:54:01.612Z,98968.47
2023-01-10T14:56:37.973Z,98966.09
2023-01-10T14:59:26.322Z,98968.56
2023-01-10T15:02:00.670Z,98958.53
2023-01-10T15:04:32.900Z,98964.00
2023-01-10T15:07:11.079Z,98963.00
2023-01-10T15:09:38.900Z,98955.03
2023-01-10T15:12:09.736Z,98949.84
2023-01-10T15:14:37.671Z,98949.13
2023-01-10T15:17:06.664Z,98944.06
2023-01-10T15:19:37.477Z,98939.97
2023-01-10T15:22:34.301Z,98939.38
2023-01-10T15:25:05.662Z,98929.72
2023-01-10T15:27:33.795Z,98928.03
2023-01-10T15:30:01.546Z,98921.00
2023-01-10T15:32:34.352Z,98924.69
2023-01-10T15:35:02.082Z,98911.59
2023-01-10T15:37:35.244Z,98914.59
2023-01-10T15:40:05.826Z,98916.28
2023-01-10T15:42:32.929Z,98910.66
2023-01-10T15:45:39.872Z,98906.03
2023-01-10T15:48:37.511Z,98897.72
2023-01-10T15:51:14.967Z,98895.16
2023-01-10T15:54:04.206Z,98889.44
2023-01-10T15:56:51.584Z,98891.91
2023-01-10T15:59:28.205Z,98893.00
2023-01-10T16:02:18.320Z,98894.91
2023-01-10T16:04:46.602Z,98891.28
2023-01-10T16:07:28.189Z,98900.09
2023-01-10T16:10:01.770Z,98895.97
2023-01-10T16:12:58.169Z,98893.13
2023-01-10T16:15:31.745Z,98901.09
2023-01-10T16:17:58.930Z,98906.88
2023-01-10T16:20:35.697Z,98897.47
2023-01-10T16:23:04.939Z,98900.50
2023-01-10T16:25:38.990Z,98896.47
2023-01-10T16:28:06.770Z,98895.28
2023-01-10T16:30:35.381Z,98907.47
2023-01-10T16:33:10.841Z,98892.91
2023-01-10T16:35:38.017Z,98888.66
2023-01-10T16:38:04.983Z,98891.09
2023-01-10T16:40:44.937Z,98893.63
2023-01-10T16:43:17.897Z,98889.44
2023-01-10T16:45:50.508Z,98884.56
2023-01-10T16:48:19.329Z,98889.03
2023-01-10T16:50:48.301Z,98885.97
2023-01-10T16:53:17.872Z,98878.13
2023-01-10T16:55:48.810Z,98873.25
2023-01-10T16:58:17.091Z,98867.25
2023-01-10T17:00:48.036Z,98875.50
2023-01-10T17:03:24.724Z,98862.41
2023-01-10T17:05:52.082Z,98862.56
2023-01-10T17:08:22.668Z,98864.69
2023-01-10T17:10:54.801Z,98855.19
2023-01-10T17:13:27.193Z,98858.91
2023-01-10T17:15:54.158Z,98852.88
2023-01-10T17:18:21.416Z,98851.53
2023-01-10T17:20:48.864Z,98854.94
2023-01-10T17:23:15.775Z,98856.59
2023-01-10T17:25:42.786Z,98858.59
2023-01-10T17:28:12.483Z,98855.19
2023-01-10T17:30:40.600Z,98853.94
2023-01-10T17:33:12.227Z,98856.56
2023-01-10T17:35:44.999Z,98847.22
2023-01-10T17:38:16.201Z,98847.84
2023-01-10T17:40:45.931Z,98848.69
2023-01-10T17:43:15.023Z,98848.06
2023-01-10T17:45:44.543Z,98846.22
2023-01-10T17:48:14.897Z,98841.53
2023-01-10T17:50:43.874Z,98842.38
2023-01-10T17:53:11.287Z,98829.41
2023-01-10T17:55:45.335Z,98837.16
2023-01-10T17:58:12.840Z,98835.34
2023-01-10T18:00:40.664Z,98833.63
2023-01-10T18:03:08.618Z,98840.47
2023-01-10T18:05:35.971Z,98834.50
2023-01-10T18:08:05.534Z,98826.91
2023-01-10T18:10:34.001Z,98830.59
2023-01-10T18:13:03.357Z,98823.66
2023-01-10T18:15:30.755Z,98831.50
2023-01-10T18:17:57.992Z,98823.66
2023-01-10T18:20:25.245Z,98832.16
2023-01-10T18:23:10.466Z,98826.72
2023-01-10T18:25:37.385Z,98832.72
2023-01-10T18:28:04.505Z,98833.09
2023-01-10T18:30:31.889Z,98821.63
2023-01-10T18:32:59.285Z,98819.56
2023-01-10T18:35:27.995Z,98814.97
2023-01-10T18:37:55.994Z,98817.13
2023-01-10T18:40:22.924Z,98804.84
2023-01-10T18:42:54.037Z,98806.56
2023-01-10T18:45:22.474Z,98800.84
2023-01-10T18:47:57.614Z,98791.78
2023-01-10T18:50:25.922Z,98786.53
2023-01-10T18:52:52.903Z,98789.50
2023-01-10T18:55:19.857Z,98780.28
2023-01-10T18:57:47.015Z,98778.09
2023-01-10T19:00:14.671Z,98779.97
2023-01-10T19:02:41.675Z,98779.50
2023-01-10T19:05:12.024Z,98774.19
2023-01-10T19:07:38.981Z,98767.78
2023-01-10T19:10:06.722Z,98764.94
2023-01-10T19:12:33.693Z,98775.19
2023-01-10T19:15:00.877Z,98768.34
2023-01-10T19:17:29.439Z,98758.16
2023-01-10T19:19:56.380Z,98751.13
2023-01-10T19:22:23.520Z,98751.00
2023-01-10T19:24:50.482Z,98749.91
2023-01-10T19:27:18.669Z,98751.69
2023-01-10T19:29:48.552Z,98741.59
2023-01-10T19:32:16.195Z,98747.59
2023-01-10T19:34:46.167Z,98751.00
2023-01-10T19:37:13.295Z,98748.44
2023-01-10T19:39:40.201Z,98752.00
2023-01-10T19:42:07.203Z,98749.38
2023-01-10T19:44:34.185Z,98747.44
2023-01-10T19:47:01.220Z,98750.00
2023-01-10T19:49:30.549Z,98748.16
2023-01-10T19:51:58.462Z,98746.38
2023-01-10T19:54:25.539Z,98744.44
2023-01-10T19:56:52.601Z,98745.38
2023-01-10T19:59:20.038Z,98736.53
2023-01-10T20:01:47.949Z,98737.13
2023-01-10T20:04:15.053Z,98743.75
2023-01-10T20:06:42.904Z,98736.84
2023-01-10T20:09:13.791Z,98736.06
2023-01-10T20:11:42.925Z,98733.50
2023-01-10T20:14:14.516Z,98731.59
2023-01-10T20:16:42.693Z,98740.38
2023-01-10T20:19:12.085Z,98737.69
2023-01-10T20:21:41.374Z,98731.13
2023-01-10T20:24:20.934Z,98737.47
2023-01-10T20:26:49.933Z,98732.66
2023-01-10T20:29:18.601Z,98730.75
2023-01-10T20:31:48.074Z,98734.97
2023-01-10T20:34:15.376Z,98740.34
2023-01-10T20:36:42.468Z,98751.44
2023-01-10T20:39:09.442Z,98747.81
2023-01-10T20:41:37.259Z,98738.59
2023-01-10T20:44:04.392Z,98754.69
2023-01-10T20:46:33.867Z,98743.81
2023-01-10T20:49:02.910Z,98739.13
2023-01-10T20:51:35.326Z,98735.06
2023-01-10T20:54:05.007Z,98739.34
2023-01-10T20:56:33.096Z,98741.84
2023-01-10T20:59:00.182Z,98731.56
2023-01-10T21:01:34.464Z,98728.72
2023-01-10T21:04:05.027Z,98729.47
2023-01-10T21:06:32.544Z,98728.59
2023-01-10T21:09:00.796Z,98721.88
2023-01-10T21:11:28.112Z,98723.41
2023-01-10T21:13:55.265Z,98721.03
2023-01-10T21:16:22.842Z,98709.09
2023-01-10T21:18:50.705Z,98702.38
2023-01-10T21:21:22.629Z,98699.31
2023-01-10T21:23:50.281Z,98691.06
2023-01-10T21:26:17.463Z,98700.03
2023-01-10T21:28:49.095Z,98693.63
2023-01-10T21:31:19.903Z,98695.63
2023-01-10T21:33:47.124Z,98694.28
2023-01-10T21:36:14.572Z,98691.06
2023-01-10T21:38:42.527Z,98689.81
2023-01-10T21:41:35.289Z,98687.88
2023-01-10T21:44:04.016Z,98686.28
2023-01-10T21:46:31.521Z,98685.38
2023-01-10T21:48:58.988Z,98680.19
2023-01-10T21:51:26.379Z,98686.28
2023-01-10T21:53:53.808Z,98691.22
2023-01-10T21:56:21.246Z,98691.44
2023-01-10T21:58:48.732Z,98697.63
2023-01-10T22:01:16.529Z,98701.19
2023-01-10T22:03:45.694Z,98685.75
2023-01-10T22:06:13.244Z,98699.69
2023-01-10T22:08:40.379Z,98693.22
2023-01-10T22:11:10.529Z,98688.50
2023-01-10T22:13:38.635Z,98693.94
2023-01-10T22:16:06.871Z,98682.00
2023-01-10T22:18:34.130Z,98671.94
2023-01-10T22:21:01.228Z,98671.31
2023-01-10T22:23:30.267Z,98663.88
2023-01-10T22:26:10.841Z,98667.94
2023-01-10T22:28:37.924Z,98654.22
2023-01-10T22:31:05.904Z,98647.16
2023-01-10T22:33:35.447Z,98649.22
2023-01-10T22:36:14.724Z,98644.19
2023-01-10T22:38:42.249Z,98634.03
2023-01-10T22:41:15.116Z,98632.47
2023-01-10T22:43:42.754Z,98622.75
2023-01-10T22:46:10.520Z,98619.63
2023-01-10T22:48:38.212Z,98610.94
2023-01-10T22:51:05.756Z,98608.53
2023-01-10T22:53:33.755Z,98589.34
2023-01-10T22:56:06.323Z,98588.47
2023-01-10T22:58:34.159Z,98589.03
2023-01-10T23:01:05.532Z,98581.03
2023-01-10T23:03:33.830Z,98578.31
2023-01-10T23:06:01.700Z,98573.59
2023-01-10T23:08:29.112Z,98569.59
2023-01-10T23:10:56.515Z,98581.75
2023-01-10T23:13:24.739Z,98571.25
2023-01-10T23:15:59.060Z,98567.75
2023-01-10T23:18:27.393Z,98566.13
2023-01-10T23:20:55.079Z,98561.53
2023-01-10T23:23:23.056Z,98555.63
2023-01-10T23:26:01.480Z,98560.69
2023-01-10T23:28:35.739Z,98551.63
2023-01-10T23:31:04.301Z,98550.78
2023-01-10T23:33:31.795Z,98547.19
2023-01-10T23:35:59.270Z,98538.28
2023-01-10T23:38:27.057Z,98539.13
2023-01-10T23:40:54.345Z,98537.19
2023-01-10T23:43:21.749Z,98543.91
2023-01-10T23:45:48.850Z,98531.56
2023-01-10T23:48:16.479Z,98534.97
2023-01-10T23:50:43.495Z,98527.88
2023-01-10T23:53:10.483Z,98531.13
2023-01-10T23:55:37.480Z,98539.91
2023-01-10T23:58:04.395Z,98535.44
